createdAt,value
2024-04-18T00:01:12.951Z,96887.91
2024-04-18T00:04:15.602Z,96885.66
2024-04-18T00:07:18.070Z,96883.38
2024-04-18T00:10:44.587Z,96880.56
2024-04-18T00:14:07.223Z,96879.31
2024-04-18T00:17:12.543Z,96882.19
2024-04-18T00:20:15.041Z,96864.63
2024-04-18T00:23:18.076Z,96877.22
2024-04-18T00:26:40.794Z,96884.91
2024-04-18T00:29:44.706Z,96884.91
2024-04-18T00:32:47.252Z,96881.69
2024-04-18T00:36:08.971Z,96878.44
2024-04-18T00:39:22.780Z,96873.22
2024-04-18T00:42:34.279Z,96881.91
2024-04-18T00:45:40.369Z,96873.38
2024-04-18T00:48:57.126Z,96875.75
2024-04-18T00:51:59.837Z,96874.41
2024-04-18T00:55:04.779Z,96875.63
2024-04-18T00:58:12.629Z,96882.72
2024-04-18T01:01:19.416Z,96889.56
2024-04-18T01:04:31.221Z,96886.44
2024-04-18T01:07:46.444Z,96889.75
2024-04-18T01:10:58.217Z,96898.69
2024-04-18T01:14:08.118Z,96897.06
2024-04-18T01:17:29.222Z,96903.50
2024-04-18T01:20:32.745Z,96897.66
2024-04-18T01:23:36.505Z,96896.91
2024-04-18T01:26:39.341Z,96895.03
2024-04-18T01:29:41.901Z,96893.72
2024-04-18T01:33:04.752Z,96898.72
2024-04-18T01:36:07.608Z,96895.94
2024-04-18T01:39:26.183Z,96890.06
2024-04-18T01:42:39.218Z,96905.63
2024-04-18T01:45:59.385Z,96903.22
2024-04-18T01:49:02.030Z,96907.25
2024-04-18T01:52:22.753Z,96906.81
2024-04-18T01:55:25.209Z,96909.66
2024-04-18T01:58:44.040Z,96908.25
2024-04-18T02:01:46.607Z,96902.56
2024-04-18T02:04:49.185Z,96900.16
2024-04-18T02:08:11.639Z,96893.81
2024-04-18T02:11:20.506Z,96903.69
2024-04-18T02:14:55.352Z,96904.13
2024-04-18T02:17:57.881Z,96911.63
2024-04-18T02:21:17.186Z,96914.88
2024-04-18T02:24:28.610Z,96914.25
2024-04-18T02:27:31.330Z,96911.44
2024-04-18T02:30:53.895Z,96905.78
2024-04-18T02:34:16.896Z,96907.78
2024-04-18T02:37:27.198Z,96887.81
2024-04-18T02:40:29.761Z,96907.78
2024-04-18T02:43:35.347Z,96907.16
2024-04-18T02:46:37.875Z,96906.75
2024-04-18T02:49:49.599Z,96910.59
2024-04-18T02:52:52.176Z,96909.44
2024-04-18T02:55:54.674Z,96910.00
2024-04-18T02:59:06.380Z,96887.41
2024-04-18T03:02:25.466Z,96907.59
2024-04-18T03:05:47.958Z,96903.16
2024-04-18T03:09:00.550Z,96911.00
2024-04-18T03:12:03.246Z,96913.38
2024-04-18T03:15:14.712Z,96917.84
2024-04-18T03:18:17.282Z,96915.75
2024-04-18T03:21:19.870Z,96914.75
2024-04-18T03:24:24.145Z,96919.81
2024-04-18T03:27:26.672Z,96917.41
2024-04-18T03:30:29.208Z,96919.63
2024-04-18T03:33:51.046Z,96921.88
2024-04-18T03:36:53.999Z,96923.81
2024-04-18T03:40:07.287Z,96925.59
2024-04-18T03:43:09.867Z,96926.41
2024-04-18T03:46:12.312Z,96924.19
2024-04-18T03:49:34.474Z,96930.72
2024-04-18T03:52:36.899Z,96925.91
2024-04-18T03:55:58.238Z,96933.06
2024-04-18T03:59:00.706Z,96934.16
2024-04-18T04:02:03.230Z,96933.09
2024-04-18T04:05:05.956Z,96930.69
2024-04-18T04:08:08.701Z,96931.94
2024-04-18T04:11:18.087Z,96932.34
2024-04-18T04:14:20.882Z,96929.56
2024-04-18T04:17:32.178Z,96955.63
2024-04-18T04:20:44.805Z,96951.50
2024-04-18T04:23:47.415Z,96963.63
2024-04-18T04:26:50.532Z,96962.13
2024-04-18T04:29:53.037Z,96960.53
2024-04-18T04:32:55.954Z,96960.91
2024-04-18T04:36:08.032Z,96963.19
2024-04-18T04:39:10.552Z,96961.66
2024-04-18T04:42:16.339Z,96954.34
2024-04-18T04:45:18.922Z,96967.09
2024-04-18T04:48:40.282Z,96972.09
2024-04-18T04:51:48.750Z,96968.25
2024-04-18T04:55:11.243Z,96968.78
2024-04-18T04:58:13.784Z,96972.81
2024-04-18T05:01:16.302Z,96983.97
2024-04-18T05:04:19.612Z,96991.03
2024-04-18T05:07:22.162Z,96991.69
2024-04-18T05:10:24.997Z,96998.97
2024-04-18T05:13:27.488Z,96945.25
2024-04-18T05:16:50.475Z,97008.84
2024-04-18T05:19:53.154Z,96987.53
2024-04-18T05:23:11.492Z,97014.69
2024-04-18T05:26:13.959Z,97017.16
2024-04-18T05:29:34.946Z,97013.72
2024-04-18T05:32:37.484Z,97020.44
2024-04-18T05:35:45.941Z,97024.91
2024-04-18T05:38:48.583Z,97026.25
2024-04-18T05:41:51.069Z,97017.34
2024-04-18T05:45:06.832Z,97027.78
2024-04-18T05:48:09.512Z,97026.66
2024-04-18T05:51:12.235Z,97035.03
2024-04-18T05:54:33.519Z,97036.47
2024-04-18T05:57:42.096Z,97032.91
2024-04-18T06:01:06.364Z,97032.34
2024-04-18T06:04:09.204Z,97042.44
2024-04-18T06:07:11.816Z,97039.28
2024-04-18T06:10:14.324Z,97045.69
2024-04-18T06:13:17.124Z,97041.50
2024-04-18T06:16:19.701Z,97040.28
2024-04-18T06:19:28.693Z,97035.16
2024-04-18T06:22:32.283Z,97050.00
2024-04-18T06:25:53.336Z,97055.47
2024-04-18T06:28:55.839Z,97053.50
2024-04-18T06:32:15.015Z,97061.09
2024-04-18T06:35:17.577Z,97061.91
2024-04-18T06:38:20.373Z,97068.88
2024-04-18T06:41:22.866Z,97060.56
2024-04-18T06:44:25.538Z,97064.53
2024-04-18T06:47:28.186Z,97063.19
2024-04-18T06:50:45.821Z,97057.16
2024-04-18T06:53:48.344Z,97062.00
2024-04-18T06:56:51.038Z,97069.75
2024-04-18T06:59:54.036Z,97051.25
2024-04-18T07:02:56.716Z,97074.16
2024-04-18T07:06:17.755Z,97069.25
2024-04-18T07:09:37.845Z,97088.75
2024-04-18T07:12:53.295Z,97073.34
2024-04-18T07:15:56.999Z,97077.88
2024-04-18T07:19:18.417Z,97080.53
2024-04-18T07:22:30.234Z,97071.56
2024-04-18T07:25:33.425Z,97071.56
2024-04-18T07:28:35.949Z,97077.91
2024-04-18T07:31:38.726Z,97078.81
2024-04-18T07:34:50.045Z,97082.03
2024-04-18T07:37:53.502Z,97094.78
2024-04-18T07:40:56.412Z,97102.44
2024-04-18T07:43:58.971Z,97101.81
2024-04-18T07:47:01.391Z,97105.19
2024-04-18T07:50:04.066Z,97089.44
2024-04-18T07:53:09.919Z,97107.16
2024-04-18T07:56:13.370Z,97104.69
2024-04-18T07:59:18.377Z,97109.91
2024-04-18T08:02:22.900Z,97112.59
2024-04-18T08:05:28.415Z,97110.97
2024-04-18T08:08:35.343Z,97110.66
2024-04-18T08:12:05.333Z,97111.13
2024-04-18T08:15:07.972Z,97108.03
2024-04-18T08:18:17.810Z,97114.44
2024-04-18T08:21:20.512Z,97122.59
2024-04-18T08:24:35.542Z,97112.84
2024-04-18T08:27:43.752Z,97116.06
2024-04-18T08:30:46.711Z,97120.69
2024-04-18T08:33:57.960Z,97118.84
2024-04-18T08:37:05.400Z,97113.41
2024-04-18T08:40:09.114Z,97129.97
2024-04-18T08:43:12.548Z,97105.72
2024-04-18T08:46:16.986Z,97128.56
2024-04-18T08:49:24.312Z,97136.22
2024-04-18T08:52:29.895Z,97118.63
2024-04-18T08:55:36.751Z,97133.81
2024-04-18T08:58:39.350Z,97136.59
2024-04-18T09:01:43.220Z,97133.25
2024-04-18T09:04:46.641Z,97137.91
2024-04-18T09:07:49.200Z,97128.81
2024-04-18T09:10:53.780Z,97142.00
2024-04-18T09:13:56.350Z,97138.25
2024-04-18T09:16:58.951Z,97142.88
2024-04-18T09:20:01.515Z,97138.88
2024-04-18T09:23:04.336Z,97145.06
2024-04-18T09:26:07.080Z,97148.78
2024-04-18T09:29:09.646Z,97155.63
2024-04-18T09:32:16.308Z,97145.63
2024-04-18T09:35:19.426Z,97139.53
2024-04-18T09:38:24.096Z,97155.06
2024-04-18T09:41:32.584Z,97148.25
2024-04-18T09:44:37.950Z,97160.19
2024-04-18T09:47:41.607Z,97165.25
2024-04-18T09:50:45.837Z,97162.69
2024-04-18T09:53:48.778Z,97143.94
2024-04-18T09:56:53.518Z,97160.47
2024-04-18T09:59:56.284Z,97152.53
2024-04-18T10:03:00.870Z,97142.66
2024-04-18T10:06:08.668Z,97144.16
2024-04-18T10:09:13.722Z,97118.16
2024-04-18T10:12:16.358Z,97147.72
2024-04-18T10:15:20.398Z,97142.59
2024-04-18T10:18:23.222Z,97084.19
2024-04-18T10:21:36.477Z,97125.19
2024-04-18T10:24:51.031Z,97131.78
2024-04-18T10:27:53.729Z,97130.56
2024-04-18T10:31:02.796Z,97137.31
2024-04-18T10:34:05.837Z,97126.00
2024-04-18T10:37:08.723Z,97139.25
2024-04-18T10:40:16.721Z,97132.06
2024-04-18T10:43:20.661Z,97134.38
2024-04-18T10:46:24.505Z,97139.81
2024-04-18T10:49:27.235Z,97137.22
2024-04-18T10:52:29.774Z,97140.75
2024-04-18T10:55:34.662Z,97146.88
2024-04-18T10:58:38.220Z,97154.09
2024-04-18T11:01:41.043Z,97156.41
2024-04-18T11:04:45.215Z,97160.59
2024-04-18T11:07:50.802Z,97158.66
2024-04-18T11:10:53.665Z,97157.28
2024-04-18T11:13:57.120Z,97154.09
2024-04-18T11:17:02.343Z,97160.47
2024-04-18T11:20:05.775Z,97174.31
2024-04-18T11:23:14.917Z,97157.84
2024-04-18T11:26:20.999Z,97163.53
2024-04-18T11:29:30.515Z,97161.59
2024-04-18T11:32:33.810Z,97179.03
2024-04-18T11:35:36.383Z,97175.78
2024-04-18T11:38:45.632Z,97169.41
2024-04-18T11:41:48.080Z,97165.78
2024-04-18T11:44:50.604Z,97162.88
2024-04-18T11:47:58.955Z,97164.09
2024-04-18T11:51:01.604Z,97155.06
2024-04-18T11:54:04.234Z,97180.47
2024-04-18T11:57:12.559Z,97149.75
2024-04-18T12:00:15.653Z,97166.34
2024-04-18T12:03:53.944Z,97170.81
2024-04-18T12:07:14.353Z,97167.44
2024-04-18T12:10:17.019Z,97162.25
2024-04-18T12:13:38.097Z,97167.38
2024-04-18T12:16:58.370Z,97163.41
2024-04-18T12:20:20.798Z,97170.44
2024-04-18T12:23:24.383Z,97166.66
2024-04-18T12:26:40.550Z,97175.81
2024-04-18T12:29:48.471Z,97165.06
2024-04-18T12:32:51.482Z,97167.13
2024-04-18T12:36:00.769Z,97153.69
2024-04-18T12:39:05.029Z,97173.56
2024-04-18T12:42:08.832Z,97174.22
2024-04-18T12:45:11.523Z,97173.47
2024-04-18T12:48:14.366Z,97179.53
2024-04-18T12:51:17.044Z,97179.47
2024-04-18T12:54:22.270Z,97192.31
2024-04-18T12:57:24.848Z,97169.66
2024-04-18T13:00:39.284Z,97189.75
2024-04-18T13:03:43.285Z,97189.50
2024-04-18T13:07:05.647Z,97196.88
2024-04-18T13:10:08.312Z,97187.63
2024-04-18T13:13:21.833Z,97180.00
2024-04-18T13:16:42.803Z,97185.50
2024-04-18T13:19:45.411Z,97213.88
2024-04-18T13:22:50.353Z,97202.47
2024-04-18T13:25:54.246Z,97207.78
2024-04-18T13:28:56.738Z,97203.44
2024-04-18T13:32:00.241Z,97202.16
2024-04-18T13:35:02.766Z,97193.81
2024-04-18T13:38:07.044Z,97194.41
2024-04-18T13:41:29.528Z,97216.84
2024-04-18T13:44:32.028Z,97230.81
2024-04-18T13:47:54.462Z,97232.22
2024-04-18T13:51:19.944Z,97234.19
2024-04-18T13:54:24.297Z,97231.00
2024-04-18T13:57:29.408Z,97232.50
2024-04-18T14:00:52.380Z,97224.72
2024-04-18T14:04:03.793Z,97197.41
2024-04-18T14:07:15.394Z,97217.84
2024-04-18T14:10:18.082Z,97213.25
2024-04-18T14:13:39.169Z,97216.94
2024-04-18T14:17:20.077Z,97210.00
2024-04-18T14:20:45.891Z,97205.81
2024-04-18T14:23:48.459Z,97212.59
2024-04-18T14:26:50.946Z,97234.19
2024-04-18T14:29:59.231Z,97212.59
2024-04-18T14:33:11.591Z,97215.78
2024-04-18T14:36:14.401Z,97218.66
2024-04-18T14:39:17.008Z,97217.72
2024-04-18T14:42:19.555Z,97212.41
2024-04-18T14:45:22.151Z,97203.13
2024-04-18T14:48:24.729Z,97211.56
2024-04-18T14:51:27.285Z,97211.28
2024-04-18T14:54:29.797Z,97212.66
2024-04-18T14:57:32.388Z,97206.44
2024-04-18T15:00:54.833Z,97203.69
2024-04-18T15:03:57.764Z,97216.28
2024-04-18T15:07:00.228Z,97222.66
2024-04-18T15:10:13.360Z,97229.06
2024-04-18T15:13:34.397Z,97222.09
2024-04-18T15:16:56.783Z,97220.88
2024-04-18T15:19:59.423Z,97231.41
2024-04-18T15:23:14.878Z,97231.50
2024-04-18T15:26:20.098Z,97240.66
2024-04-18T15:29:22.627Z,97264.22
2024-04-18T15:32:43.783Z,97274.50
2024-04-18T15:35:55.314Z,97280.00
2024-04-18T15:38:57.842Z,97271.59
2024-04-18T15:42:00.340Z,97277.75
2024-04-18T15:45:22.132Z,97288.09
2024-04-18T15:48:26.112Z,97290.19
2024-04-18T15:51:28.738Z,97291.91
2024-04-18T15:54:43.346Z,97300.19
2024-04-18T15:57:45.779Z,97258.16
2024-04-18T16:00:48.356Z,97309.75
2024-04-18T16:04:09.208Z,97300.06
2024-04-18T16:07:30.734Z,97312.88
2024-04-18T16:10:53.026Z,97323.03
2024-04-18T16:14:01.365Z,97323.00
2024-04-18T16:17:04.357Z,97333.09
2024-04-18T16:20:35.941Z,97327.56
2024-04-18T16:23:38.458Z,97330.88
2024-04-18T16:26:40.967Z,97334.56
2024-04-18T16:29:43.511Z,97330.88
2024-04-18T16:33:06.182Z,97353.78
2024-04-18T16:36:10.160Z,97352.72
2024-04-18T16:39:27.807Z,97359.00
2024-04-18T16:42:35.454Z,97361.03
2024-04-18T16:45:38.373Z,97373.34
2024-04-18T16:48:40.967Z,97377.81
2024-04-18T16:51:43.498Z,97379.13
2024-04-18T16:54:49.724Z,97386.94
2024-04-18T16:58:12.091Z,97381.34
2024-04-18T17:01:14.584Z,97389.78
2024-04-18T17:04:17.298Z,97393.44
2024-04-18T17:07:45.897Z,97388.34
2024-04-18T17:10:57.856Z,97395.09
2024-04-18T17:14:19.091Z,97379.56
2024-04-18T17:17:22.851Z,97388.00
2024-04-18T17:20:31.151Z,97399.66
2024-04-18T17:23:33.583Z,97393.13
2024-04-18T17:26:36.147Z,97398.53
2024-04-18T17:29:38.805Z,97402.63
2024-04-18T17:32:41.499Z,97407.53
2024-04-18T17:36:03.033Z,97410.88
2024-04-18T17:39:21.036Z,97405.81
2024-04-18T17:42:23.564Z,97419.31
2024-04-18T17:45:32.416Z,97421.50
2024-04-18T17:48:50.466Z,97418.31
2024-04-18T17:51:53.351Z,97423.81
2024-04-18T17:54:58.907Z,97419.34
2024-04-18T17:58:02.558Z,97431.78
2024-04-18T18:01:05.420Z,97436.66
2024-04-18T18:04:10.614Z,97440.31
2024-04-18T18:07:13.455Z,97451.88
2024-04-18T18:10:16.448Z,97453.31
2024-04-18T18:13:38.984Z,97450.66
2024-04-18T18:16:41.425Z,97460.81
2024-04-18T18:19:44.421Z,97466.09
2024-04-18T18:22:47.267Z,97468.38
2024-04-18T18:25:50.644Z,97476.69
2024-04-18T18:28:53.562Z,97481.38
2024-04-18T18:31:56.248Z,97483.03
2024-04-18T18:34:59.645Z,97490.38
2024-04-18T18:38:05.847Z,97497.72
2024-04-18T18:41:08.603Z,97500.38
2024-04-18T18:44:11.277Z,97510.72
2024-04-18T18:47:13.858Z,97517.63
2024-04-18T18:50:26.022Z,97510.75
2024-04-18T18:53:29.513Z,97520.69
2024-04-18T18:56:32.263Z,97512.56
2024-04-18T18:59:54.178Z,97515.44
2024-04-18T19:02:59.845Z,97524.34
2024-04-18T19:06:27.576Z,97519.66
2024-04-18T19:09:33.183Z,97530.63
2024-04-18T19:12:37.724Z,97518.06
2024-04-18T19:15:40.940Z,97533.25
2024-04-18T19:18:45.368Z,97515.63
2024-04-18T19:21:48.262Z,97526.16
2024-04-18T19:24:52.521Z,97537.31
2024-04-18T19:27:55.892Z,97537.91
2024-04-18T19:30:59.845Z,97528.00
2024-04-18T19:34:02.862Z,97546.84
2024-04-18T19:37:06.823Z,97541.19
2024-04-18T19:40:10.170Z,97547.88
2024-04-18T19:43:33.857Z,97558.22
2024-04-18T19:46:37.162Z,97561.47
2024-04-18T19:49:44.322Z,97552.75
2024-04-18T19:52:47.496Z,97558.41
2024-04-18T19:55:51.702Z,97563.09
2024-04-18T19:58:55.514Z,97552.53
2024-04-18T20:01:59.210Z,97536.53
2024-04-18T20:05:02.910Z,97558.22
2024-04-18T20:08:07.534Z,97573.19
2024-04-18T20:11:10.986Z,97571.38
2024-04-18T20:14:14.199Z,97565.28
2024-04-18T20:17:18.624Z,97579.47
2024-04-18T20:20:22.086Z,97581.66
2024-04-18T20:23:26.810Z,97587.75
2024-04-18T20:26:30.274Z,97574.78
2024-04-18T20:29:48.433Z,97585.28
2024-04-18T20:32:58.578Z,97585.28
2024-04-18T20:36:01.528Z,97584.25
2024-04-18T20:39:04.231Z,97585.47
2024-04-18T20:42:06.936Z,97582.41
2024-04-18T20:45:09.604Z,97576.72
2024-04-18T20:48:12.241Z,97577.97
2024-04-18T20:51:14.846Z,97587.69
2024-04-18T20:54:17.637Z,97582.00
2024-04-18T20:57:20.557Z,97584.84
2024-04-18T21:00:26.855Z,97578.75
2024-04-18T21:03:29.874Z,97589.09
2024-04-18T21:06:32.953Z,97584.78
2024-04-18T21:09:35.734Z,97585.81
2024-04-18T21:12:38.399Z,97588.28
2024-04-18T21:15:41.667Z,97588.44
2024-04-18T21:18:44.506Z,97593.47
2024-04-18T21:21:47.409Z,97592.88
2024-04-18T21:24:50.000Z,97596.28
2024-04-18T21:27:52.582Z,97599.72
2024-04-18T21:30:55.180Z,97601.56
2024-04-18T21:33:57.889Z,97596.91
2024-04-18T21:37:00.505Z,97605.97
2024-04-18T21:40:03.755Z,97593.44
2024-04-18T21:43:06.296Z,97606.38
2024-04-18T21:46:08.872Z,97598.66
2024-04-18T21:49:11.559Z,97602.28
2024-04-18T21:52:14.154Z,97606.09
2024-04-18T21:55:17.015Z,97608.09
2024-04-18T21:58:19.520Z,97611.56
2024-04-18T22:01:22.123Z,97607.28
2024-04-18T22:04:24.824Z,97586.38
2024-04-18T22:07:28.073Z,97600.16
2024-04-18T22:10:30.602Z,97610.28
2024-04-18T22:13:33.168Z,97606.19
2024-04-18T22:16:36.421Z,97604.59
2024-04-18T22:19:39.068Z,97607.91
2024-04-18T22:22:41.683Z,97607.22
2024-04-18T22:25:44.572Z,97601.84
2024-04-18T22:28:47.148Z,97608.94
2024-04-18T22:31:49.746Z,97615.25
2024-04-18T22:34:52.304Z,97611.38
2024-04-18T22:38:08.412Z,97616.69
2024-04-18T22:41:11.011Z,97617.84
2024-04-18T22:44:13.543Z,97615.88
2024-04-18T22:47:16.712Z,97611.38
2024-04-18T22:50:19.330Z,97607.91
2024-04-18T22:53:22.255Z,97610.16
2024-04-18T22:56:27.226Z,97610.31
2024-04-18T22:59:30.134Z,97614.31
2024-04-18T23:02:32.608Z,97607.66
2024-04-18T23:05:35.308Z,97614.88
2024-04-18T23:08:37.873Z,97607.69
2024-04-18T23:11:40.466Z,97609.91
2024-04-18T23:14:43.104Z,97607.88
2024-04-18T23:17:45.757Z,97601.78
2024-04-18T23:20:48.515Z,97609.03
2024-04-18T23:23:51.401Z,97605.78
2024-04-18T23:26:53.943Z,97607.13
2024-04-18T23:29:56.548Z,97615.06
2024-04-18T23:32:59.477Z,97609.72
2024-04-18T23:36:02.028Z,97610.66
2024-04-18T23:39:04.960Z,97613.94
2024-04-18T23:42:07.427Z,97617.50
2024-04-18T23:45:10.038Z,97621.66
2024-04-18T23:48:13.933Z,97618.69
2024-04-18T23:51:16.637Z,97625.50
2024-04-18T23:54:19.247Z,97629.28
2024-04-18T23:57:21.843Z,97632.06
